ORD weather

Chicago O'Hare International Airport
Chicago, Illinois, United States

Public forecast

Using degrees Fahrenheit for public forecast. Weather courtesy of forecast.io.

METAR (pilot weather report)

Retrieved 2017/04/24 08:51 UTC (15 minutes ago):

KORD 240851Z 05006KT 10SM SCT250 05/03 A3001

TAF (pilot weather forecast)

Retrieved 2017/04/24 06:22 UTC (3 hours ago):

TAF KORD 240520Z 2406/2512 05006KT P6SM SCT250 FM241200 13007KT P6SM SCT250 FM241500 12012KT P6SM SCT250 FM242100 09011KT P6SM SCT250 FM250200 13007KT P6SM BKN250